createdAt,value
2022-08-29T00:00:00.373Z,226.6
2022-08-29T00:05:00.370Z,238.9
2022-08-29T00:10:00.358Z,236.3
2022-08-29T00:15:00.388Z,222.5
2022-08-29T00:20:00.371Z,221.5
2022-08-29T00:25:00.366Z,223.1
2022-08-29T00:30:00.358Z,221.6
2022-08-29T00:35:00.368Z,228.1
2022-08-29T00:40:01.619Z,203.3
2022-08-29T00:45:00.405Z,202.5
2022-08-29T00:50:00.382Z,224.5
2022-08-29T00:55:00.395Z,248.6
2022-08-29T01:00:00.419Z,242.5
2022-08-29T01:05:00.361Z,225.6
2022-08-29T01:10:13.974Z,243.2
2022-08-29T01:15:00.334Z,242.8
2022-08-29T01:20:00.366Z,232.3
2022-08-29T01:25:00.391Z,255.0
2022-08-29T01:30:00.396Z,264.5
2022-08-29T01:35:00.379Z,264.9
2022-08-29T01:40:00.657Z,245.7
2022-08-29T01:45:03.161Z,263.3
2022-08-29T01:50:00.358Z,237.8
2022-08-29T01:55:00.363Z,236.4
2022-08-29T02:00:00.419Z,228.3
2022-08-29T02:05:00.316Z,224.4
2022-08-29T02:10:00.372Z,221.3
2022-08-29T02:15:00.378Z,216.7
2022-08-29T02:20:00.357Z,221.9
2022-08-29T02:25:00.367Z,193.3
2022-08-29T02:30:00.403Z,198.5
2022-08-29T02:35:00.371Z,195.0
2022-08-29T02:40:00.693Z,196.9
2022-08-29T02:45:00.376Z,194.9
2022-08-29T02:50:00.446Z,196.2
2022-08-29T02:55:00.344Z,205.7
2022-08-29T03:00:00.415Z,206.4
2022-08-29T03:05:00.361Z,203.2
2022-08-29T03:10:00.357Z,199.7
2022-08-29T03:15:00.389Z,205.0
2022-08-29T03:20:00.352Z,199.2
2022-08-29T03:25:00.336Z,200.2
2022-08-29T03:30:00.418Z,208.4
2022-08-29T03:35:00.341Z,201.9
2022-08-29T03:40:00.753Z,205.7
2022-08-29T03:45:00.383Z,202.9
2022-08-29T03:50:00.427Z,201.9
2022-08-29T03:55:00.398Z,202.4
2022-08-29T04:00:00.370Z,200.1
2022-08-29T04:05:08.912Z,210.9
2022-08-29T04:10:00.444Z,199.0
2022-08-29T04:15:00.411Z,205.6
2022-08-29T04:20:00.370Z,209.4
2022-08-29T04:25:00.359Z,195.1
2022-08-29T04:30:00.441Z,195.4
2022-08-29T04:35:00.365Z,189.2
2022-08-29T04:40:00.619Z,222.3
2022-08-29T04:45:00.369Z,189.7
2022-08-29T04:50:00.351Z,200.4
2022-08-29T04:55:00.378Z,176.0
2022-08-29T05:00:01.104Z,201.9
2022-08-29T05:05:00.398Z,202.9
2022-08-29T05:10:00.372Z,202.2
2022-08-29T05:15:00.385Z,206.1
2022-08-29T05:20:00.339Z,200.4
2022-08-29T05:25:00.355Z,194.7
2022-08-29T05:30:00.407Z,196.4
2022-08-29T05:35:00.398Z,208.0
2022-08-29T05:40:00.607Z,237.6
2022-08-29T05:45:00.369Z,204.9
2022-08-29T05:50:00.350Z,204.3
2022-08-29T05:55:00.350Z,185.6
2022-08-29T06:00:00.497Z,209.7
2022-08-29T06:05:00.352Z,203.5
2022-08-29T06:10:04.277Z,197.5
2022-08-29T06:15:00.386Z,202.0
2022-08-29T06:20:00.391Z,190.5
2022-08-29T06:25:38.301Z,191.8
2022-08-29T06:30:02.391Z,193.7
2022-08-29T06:35:00.397Z,210.9
2022-08-29T06:40:00.723Z,219.8
2022-08-29T06:45:00.393Z,203.4
2022-08-29T06:50:00.373Z,192.2
2022-08-29T06:55:01.521Z,203.9
2022-08-29T07:00:22.674Z,225.7
2022-08-29T07:05:00.337Z,205.5
2022-08-29T07:10:00.357Z,214.9
2022-08-29T07:15:00.394Z,196.3
2022-08-29T07:20:00.442Z,195.1
2022-08-29T07:25:00.376Z,213.4
2022-08-29T07:30:00.485Z,201.1
2022-08-29T07:35:00.395Z,195.5
2022-08-29T07:40:00.779Z,216.7
2022-08-29T07:45:00.440Z,208.4
2022-08-29T07:50:00.462Z,231.2
2022-08-29T07:55:00.455Z,189.6
2022-08-29T08:00:00.435Z,206.2
2022-08-29T08:05:00.410Z,222.4
2022-08-29T08:10:00.448Z,189.5
2022-08-29T08:15:00.423Z,211.5
2022-08-29T08:20:00.420Z,190.8
2022-08-29T08:25:00.439Z,192.6
2022-08-29T08:30:00.457Z,191.8
2022-08-29T08:35:00.392Z,192.7
2022-08-29T08:40:00.686Z,200.3
2022-08-29T08:45:00.408Z,208.2
2022-08-29T08:50:00.420Z,198.0
2022-08-29T08:55:00.415Z,205.9
2022-08-29T09:00:00.786Z,195.3
2022-08-29T09:05:00.419Z,202.0
2022-08-29T09:10:00.415Z,197.4
2022-08-29T09:15:00.479Z,188.4
2022-08-29T09:20:00.459Z,199.5
2022-08-29T09:25:00.359Z,203.4
2022-08-29T09:30:00.486Z,195.6
2022-08-29T09:35:10.609Z,202.5
2022-08-29T09:40:00.755Z,199.5
2022-08-29T09:45:00.486Z,198.9
2022-08-29T09:50:00.420Z,227.4
2022-08-29T09:55:00.396Z,185.7
2022-08-29T10:00:00.754Z,197.3
2022-08-29T10:05:00.411Z,199.6
2022-08-29T10:10:00.429Z,195.5
2022-08-29T10:15:00.386Z,194.3
2022-08-29T10:20:00.374Z,198.1
2022-08-29T10:25:00.390Z,190.8
2022-08-29T10:30:01.966Z,201.1
2022-08-29T10:35:00.349Z,181.9
2022-08-29T10:40:00.687Z,186.0
2022-08-29T10:45:00.370Z,208.1
2022-08-29T10:50:00.401Z,188.7
2022-08-29T10:55:00.377Z,194.2
2022-08-29T11:00:00.411Z,192.9
2022-08-29T11:05:00.475Z,199.5
2022-08-29T11:10:00.355Z,195.5
2022-08-29T11:15:00.373Z,201.0
2022-08-29T11:20:00.421Z,194.4
2022-08-29T11:25:00.424Z,203.3
2022-08-29T11:30:00.453Z,189.1
2022-08-29T11:35:00.360Z,193.4
2022-08-29T11:40:00.765Z,226.8
2022-08-29T11:45:00.438Z,211.8
2022-08-29T11:50:00.382Z,192.4
2022-08-29T11:55:00.366Z,212.0
2022-08-29T12:00:00.439Z,215.5
2022-08-29T12:05:00.355Z,191.3
2022-08-29T12:10:00.343Z,219.4
2022-08-29T12:15:00.546Z,202.9
2022-08-29T12:20:00.340Z,233.1
2022-08-29T12:25:00.369Z,210.4
2022-08-29T12:30:00.440Z,204.3
2022-08-29T12:35:00.427Z,232.6
2022-08-29T12:40:00.773Z,201.0
2022-08-29T12:45:00.844Z,187.8
2022-08-29T12:50:00.415Z,227.8
2022-08-29T12:55:00.380Z,241.3
2022-08-29T13:00:00.823Z,232.1
2022-08-29T13:05:00.383Z,234.7
2022-08-29T13:10:00.930Z,236.5
2022-08-29T13:15:00.397Z,247.7
2022-08-29T13:20:00.518Z,258.2
2022-08-29T13:25:00.389Z,230.5
2022-08-29T13:30:00.449Z,223.2
2022-08-29T13:35:00.428Z,222.3
2022-08-29T13:40:01.018Z,259.5
2022-08-29T13:45:00.387Z,264.3
2022-08-29T13:50:00.369Z,247.5
2022-08-29T13:55:00.381Z,278.2
2022-08-29T14:00:00.664Z,295.4
2022-08-29T14:05:00.863Z,238.9
2022-08-29T14:10:00.331Z,266.4
2022-08-29T14:15:10.048Z,233.3
2022-08-29T14:20:00.363Z,253.2
2022-08-29T14:25:00.365Z,255.6
2022-08-29T14:30:00.388Z,262.0
2022-08-29T14:35:00.364Z,246.4
2022-08-29T14:40:00.828Z,269.2
2022-08-29T14:45:00.384Z,285.3
2022-08-29T14:50:00.446Z,234.9
2022-08-29T14:55:00.332Z,260.6
2022-08-29T15:00:00.457Z,242.9
2022-08-29T15:05:00.397Z,257.6
2022-08-29T15:10:00.435Z,290.3
2022-08-29T15:15:00.400Z,275.9
2022-08-29T15:20:39.274Z,296.0
2022-08-29T15:25:00.343Z,289.5
2022-08-29T15:30:00.419Z,275.2
2022-08-29T15:35:00.350Z,276.0
2022-08-29T15:40:00.728Z,295.7
2022-08-29T15:45:08.425Z,315.8
2022-08-29T15:50:00.333Z,312.0
2022-08-29T15:55:00.368Z,294.2
2022-08-29T16:00:00.426Z,292.5
2022-08-29T16:05:00.373Z,300.6
2022-08-29T16:10:11.596Z,314.8
2022-08-29T16:15:09.749Z,319.0
2022-08-29T16:20:00.374Z,326.7
2022-08-29T16:25:00.388Z,335.7
2022-08-29T16:30:00.752Z,319.5
2022-08-29T16:35:00.346Z,329.0
2022-08-29T16:40:00.916Z,328.2
2022-08-29T16:45:00.424Z,319.3
2022-08-29T16:50:00.674Z,342.6
2022-08-29T16:55:00.381Z,324.4
2022-08-29T17:00:00.800Z,313.6
2022-08-29T17:05:00.418Z,358.3
2022-08-29T17:10:01.161Z,313.1
2022-08-29T17:15:00.410Z,315.2
2022-08-29T17:20:00.365Z,335.1
2022-08-29T17:25:00.380Z,312.7
2022-08-29T17:30:00.438Z,315.0
2022-08-29T17:35:00.388Z,337.2
2022-08-29T17:40:00.792Z,337.5
2022-08-29T17:45:00.370Z,337.5
2022-08-29T17:50:00.373Z,337.5
2022-08-29T17:55:07.781Z,337.5
2022-08-29T18:00:00.393Z,337.5
2022-08-29T18:05:02.217Z,337.5
2022-08-29T18:10:00.346Z,337.5
2022-08-29T18:15:00.404Z,337.5
2022-08-29T18:20:00.341Z,302.4
2022-08-29T18:25:00.386Z,292.6
2022-08-29T18:30:01.087Z,306.3
2022-08-29T18:35:01.377Z,318.0
2022-08-29T18:40:00.725Z,309.4
2022-08-29T18:45:00.393Z,335.2
2022-08-29T18:50:00.379Z,335.8
2022-08-29T18:55:00.376Z,330.7
2022-08-29T19:00:00.377Z,319.9
2022-08-29T19:05:00.478Z,345.9
2022-08-29T19:10:00.395Z,341.3
2022-08-29T19:15:00.428Z,348.4
2022-08-29T19:20:00.455Z,341.9
2022-08-29T19:25:00.606Z,352.7
2022-08-29T19:30:06.206Z,20.0
2022-08-29T19:35:00.376Z,4.7
2022-08-29T19:40:01.638Z,27.7
2022-08-29T19:45:00.456Z,30.9
2022-08-29T19:50:00.396Z,22.3
2022-08-29T19:55:01.329Z,40.0
2022-08-29T20:00:00.364Z,37.8
2022-08-29T20:05:00.373Z,22.5
2022-08-29T20:10:02.275Z,41.2
2022-08-29T20:15:00.422Z,23.3
2022-08-29T20:20:00.347Z,0.2
2022-08-29T20:25:00.374Z,339.3
2022-08-29T20:30:00.384Z,337.5
2022-08-29T20:35:00.388Z,337.5
2022-08-29T20:40:00.646Z,337.5
2022-08-29T20:45:00.410Z,337.5
2022-08-29T20:50:00.424Z,337.5
2022-08-29T20:55:00.450Z,337.5
2022-08-29T21:00:00.383Z,337.5
2022-08-29T21:05:00.383Z,337.5
2022-08-29T21:10:02.372Z,337.5
2022-08-29T21:15:00.384Z,337.5
2022-08-29T21:20:00.396Z,337.5
2022-08-29T21:25:00.381Z,337.5
2022-08-29T21:30:00.414Z,337.5
2022-08-29T21:35:00.352Z,337.5
2022-08-29T21:40:00.735Z,337.5
2022-08-29T21:45:00.397Z,337.5
2022-08-29T21:50:00.371Z,337.5
2022-08-29T21:55:00.434Z,337.5
2022-08-29T22:00:00.513Z,337.5
2022-08-29T22:05:00.352Z,322.1
2022-08-29T22:10:00.394Z,315.0
2022-08-29T22:15:00.355Z,315.0
2022-08-29T22:20:00.386Z,315.0
2022-08-29T22:25:00.361Z,315.0
2022-08-29T22:30:00.457Z,315.0
2022-08-29T22:35:00.355Z,316.1
2022-08-29T22:40:00.659Z,337.4
2022-08-29T22:45:04.817Z,318.9
2022-08-29T22:50:00.419Z,315.0
2022-08-29T22:55:00.349Z,315.0
2022-08-29T23:00:00.509Z,315.0
2022-08-29T23:05:00.362Z,315.0
2022-08-29T23:10:00.398Z,315.0
2022-08-29T23:15:00.352Z,315.0
2022-08-29T23:20:00.727Z,315.0
2022-08-29T23:25:00.356Z,315.0
2022-08-29T23:30:00.448Z,315.0
2022-08-29T23:35:00.357Z,315.0
2022-08-29T23:40:00.710Z,315.0
2022-08-29T23:45:00.397Z,296.4
2022-08-29T23:50:00.362Z,248.2
2022-08-29T23:55:00.357Z,247.5
